createdAt,value
2023-04-14T00:03:23.405Z,11.55
2023-04-14T00:08:25.074Z,9.15
2023-04-14T00:13:26.622Z,7.55
2023-04-14T00:18:28.323Z,6.72
2023-04-14T00:23:29.881Z,4.78
2023-04-14T00:28:31.398Z,4.47
2023-04-14T00:33:33.084Z,4.90
2023-04-14T00:38:36.398Z,3.92
2023-04-14T00:43:38.058Z,4.30
2023-04-14T00:48:40.149Z,6.15
2023-04-14T00:53:42.519Z,6.28
2023-04-14T00:58:44.696Z,7.38
2023-04-14T01:03:46.559Z,7.85
2023-04-14T01:08:51.377Z,7.22
2023-04-14T01:13:59.424Z,7.40
2023-04-14T01:19:16.595Z,8.95
2023-04-14T01:24:47.352Z,8.93
2023-04-14T01:30:00.227Z,9.18
2023-04-14T01:35:13.102Z,9.63
2023-04-14T01:40:17.108Z,9.88
2023-04-14T01:45:24.408Z,10.60
2023-04-14T01:50:28.465Z,11.00
2023-04-14T01:55:33.240Z,11.60
2023-04-14T02:00:36.173Z,13.93
2023-04-14T02:05:40.066Z,11.77
2023-04-14T02:10:45.801Z,10.70
2023-04-14T02:15:50.946Z,11.48
2023-04-14T02:26:02.598Z,9.65
2023-04-14T02:31:11.450Z,8.95
2023-04-14T02:36:19.180Z,9.13
2023-04-14T02:41:25.403Z,10.25
2023-04-14T02:46:31.780Z,10.65
2023-04-14T02:51:36.392Z,11.40
2023-04-14T02:56:38.697Z,12.98
2023-04-14T03:01:41.853Z,12.55
2023-04-14T03:06:44.522Z,13.20
2023-04-14T03:11:46.696Z,10.88
2023-04-14T03:16:53.537Z,11.15
2023-04-14T03:21:56.606Z,10.60
2023-04-14T03:27:04.738Z,10.50
2023-04-14T03:32:08.306Z,11.65
2023-04-14T03:37:15.591Z,9.27
2023-04-14T03:42:19.929Z,11.00
2023-04-14T03:47:22.228Z,11.00
2023-04-14T03:52:29.644Z,9.60
2023-04-14T04:02:34.936Z,10.20
2023-04-14T04:07:39.989Z,11.65
2023-04-14T04:12:43.715Z,13.15
2023-04-14T04:17:49.204Z,11.27
2023-04-14T04:22:54.770Z,11.32
2023-04-14T04:27:56.586Z,10.70
2023-04-14T04:33:01.938Z,10.52
2023-04-14T04:38:03.751Z,10.13
2023-04-14T04:43:05.933Z,10.05
2023-04-14T04:48:08.094Z,10.40
2023-04-14T04:53:09.906Z,10.00
2023-04-14T04:58:11.540Z,9.60
2023-04-14T05:03:13.166Z,9.25
2023-04-14T05:08:15.413Z,8.07
2023-04-14T05:13:17.047Z,7.63
2023-04-14T05:18:18.970Z,7.53
2023-04-14T05:23:20.499Z,9.45
2023-04-14T05:28:22.041Z,11.27
2023-04-14T05:33:23.675Z,9.80
2023-04-14T05:38:25.302Z,9.85
2023-04-14T05:43:26.809Z,9.48
2023-04-14T05:48:28.373Z,8.57
2023-04-14T05:53:29.910Z,8.77
2023-04-14T05:58:31.530Z,5.40
2023-04-14T06:03:33.276Z,4.25
2023-04-14T06:08:34.964Z,3.28
2023-04-14T06:13:36.722Z,2.20
2023-04-14T06:18:38.281Z,2.22
2023-04-14T06:23:39.844Z,2.13
2023-04-14T06:28:43.725Z,2.20
2023-04-14T06:33:45.596Z,2.22
2023-04-14T06:38:47.133Z,2.58
2023-04-14T06:43:48.708Z,2.10
2023-04-14T06:48:50.273Z,1.67
2023-04-14T06:53:51.806Z,2.20
2023-04-14T06:58:53.479Z,2.13
2023-04-14T07:03:55.108Z,2.50
2023-04-14T07:08:56.704Z,2.53
2023-04-14T07:13:58.422Z,2.13
2023-04-14T07:18:59.960Z,2.65
2023-04-14T07:24:02.044Z,2.50
2023-04-14T07:29:03.931Z,1.83
2023-04-14T07:34:06.009Z,2.30
2023-04-14T07:39:07.581Z,2.40
2023-04-14T07:44:09.288Z,2.17
2023-04-14T07:49:10.832Z,2.47
2023-04-14T07:54:12.308Z,2.28
2023-04-14T07:59:13.887Z,2.10
2023-04-14T08:04:15.548Z,2.00
2023-04-14T08:09:17.517Z,2.20
2023-04-14T08:14:19.112Z,2.33
2023-04-14T08:19:20.684Z,2.80
2023-04-14T08:24:22.337Z,2.65
2023-04-14T08:29:27.115Z,2.25
2023-04-14T08:34:28.961Z,2.25
2023-04-14T08:39:30.640Z,2.58
2023-04-14T08:44:32.400Z,2.38
2023-04-14T08:49:42.097Z,3.10
2023-04-14T08:54:47.474Z,2.95
2023-04-14T08:59:49.946Z,2.17
2023-04-14T09:04:52.966Z,1.92
2023-04-14T09:09:55.761Z,1.92
2023-04-14T09:14:58.995Z,2.75
2023-04-14T09:20:36.397Z,2.17
2023-04-14T09:25:22.329Z,1.65
2023-04-14T09:30:24.075Z,1.80
2023-04-14T09:35:44.094Z,1.85
2023-04-14T09:40:45.679Z,1.73
2023-04-14T09:45:47.253Z,1.60
2023-04-14T09:51:06.704Z,1.55
2023-04-14T09:56:12.437Z,2.03
2023-04-14T10:01:18.388Z,1.75
2023-04-14T10:06:21.820Z,2.08
2023-04-14T10:11:26.108Z,1.80
2023-04-14T10:16:27.764Z,3.10
2023-04-14T10:21:29.666Z,1.45
2023-04-14T10:26:31.702Z,1.65
2023-04-14T10:31:37.684Z,2.17
2023-04-14T10:36:39.900Z,2.15
2023-04-14T10:41:44.490Z,1.67
2023-04-14T10:46:46.336Z,3.25
2023-04-14T10:51:49.780Z,1.50
2023-04-14T10:57:12.716Z,5.30
2023-04-14T11:02:34.176Z,1.40
2023-04-14T11:07:46.421Z,1.70
2023-04-14T11:12:54.325Z,6.40
2023-04-14T11:18:11.706Z,1.30
2023-04-14T11:23:14.579Z,2.60
2023-04-14T11:28:16.110Z,1.10
2023-04-14T11:33:19.055Z,1.30
2023-04-14T11:38:20.842Z,0.98
2023-04-14T11:43:23.612Z,1.17
2023-04-14T11:48:27.996Z,1.10
2023-04-14T11:53:29.670Z,0.85
2023-04-14T11:58:31.381Z,0.70
2023-04-14T12:03:33.213Z,0.90
2023-04-14T12:08:34.868Z,3.20
2023-04-14T12:13:40.675Z,1.20
2023-04-14T12:18:43.475Z,1.30
2023-04-14T12:23:46.787Z,0.90
2023-04-14T12:28:55.994Z,0.68
2023-04-14T12:34:04.151Z,1.15
2023-04-14T12:39:08.062Z,1.20
2023-04-14T12:44:17.358Z,7.20
2023-04-14T12:49:30.871Z,1.08
2023-04-14T12:54:51.167Z,1.20
2023-04-14T12:59:52.802Z,1.55
2023-04-14T13:04:54.538Z,1.08
2023-04-14T13:09:56.924Z,1.00
2023-04-14T13:14:58.656Z,1.08
2023-04-14T13:20:00.759Z,19.05
2023-04-14T13:25:02.307Z,0.93
2023-04-14T13:30:04.340Z,0.90
2023-04-14T13:35:06.248Z,1.25
2023-04-14T13:40:08.701Z,0.80
2023-04-14T13:45:10.357Z,0.90
2023-04-14T13:50:11.948Z,0.80
2023-04-14T13:55:13.876Z,1.10
2023-04-14T14:00:15.737Z,0.90
2023-04-14T14:05:17.372Z,0.80
2023-04-14T14:10:19.056Z,1.02
2023-04-14T14:15:20.611Z,0.80
2023-04-14T14:20:22.118Z,1.38
2023-04-14T14:25:23.769Z,1.13
2023-04-14T14:30:25.523Z,0.70
2023-04-14T14:35:27.070Z,0.80
2023-04-14T14:40:29.287Z,0.70
2023-04-14T14:45:33.041Z,1.02
2023-04-14T14:50:34.917Z,0.70
2023-04-14T14:55:36.380Z,0.80
2023-04-14T15:00:38.997Z,1.00
2023-04-14T15:05:40.596Z,0.88
2023-04-14T15:10:42.230Z,1.00
2023-04-14T15:15:43.788Z,1.35
2023-04-14T15:20:46.868Z,0.85
2023-04-14T15:25:48.489Z,0.88
2023-04-14T15:30:50.017Z,0.77
2023-04-14T15:35:51.704Z,0.70
2023-04-14T15:40:53.956Z,1.00
2023-04-14T15:45:55.571Z,0.80
2023-04-14T15:50:57.169Z,0.68
2023-04-14T15:55:58.814Z,0.60
2023-04-14T16:01:00.414Z,0.85
2023-04-14T16:06:02.853Z,0.93
2023-04-14T16:11:04.435Z,0.85
2023-04-14T16:16:06.353Z,0.85
2023-04-14T16:21:08.411Z,1.15
2023-04-14T16:26:10.048Z,0.85
2023-04-14T16:31:11.808Z,0.70
2023-04-14T16:36:13.351Z,0.75
2023-04-14T16:41:14.867Z,0.52
2023-04-14T16:46:16.425Z,0.70
2023-04-14T16:51:18.125Z,1.10
2023-04-14T16:56:19.639Z,0.63
2023-04-14T17:01:21.320Z,0.90
2023-04-14T17:06:23.163Z,0.80
2023-04-14T17:11:24.737Z,1.10
2023-04-14T17:16:26.498Z,0.70
2023-04-14T17:21:28.319Z,1.40
2023-04-14T17:26:29.846Z,0.80
2023-04-14T17:31:31.584Z,1.33
2023-04-14T17:36:33.827Z,0.70
2023-04-14T17:41:35.680Z,1.00
2023-04-14T17:46:37.169Z,0.55
2023-04-14T17:51:38.878Z,0.77
2023-04-14T17:56:40.482Z,0.63
2023-04-14T18:01:42.239Z,1.23
2023-04-14T18:06:44.066Z,34.33
2023-04-14T18:11:45.579Z,6.50
2023-04-14T18:16:47.257Z,3.58
2023-04-14T18:21:48.890Z,5.05
2023-04-14T18:26:50.410Z,5.82
2023-04-14T18:31:51.949Z,10.38
2023-04-14T18:36:53.597Z,8.68
2023-04-14T18:41:55.104Z,10.32
2023-04-14T18:46:56.655Z,5.95
2023-04-14T18:51:58.284Z,2.70
2023-04-14T18:57:00.527Z,3.90
2023-04-14T19:02:02.185Z,3.58
2023-04-14T19:07:03.774Z,4.45
2023-04-14T19:12:05.461Z,1.10
2023-04-14T19:17:07.633Z,1.15
2023-04-14T19:22:09.297Z,1.10
2023-04-14T19:27:10.881Z,1.20
2023-04-14T19:32:12.439Z,0.90
2023-04-14T19:37:14.055Z,0.90
2023-04-14T19:42:15.640Z,0.95
2023-04-14T19:47:17.390Z,1.50
2023-04-14T19:52:18.889Z,1.20
2023-04-14T19:57:20.616Z,0.95
2023-04-14T20:02:22.302Z,2.85
2023-04-14T20:07:29.660Z,1.85
2023-04-14T20:12:31.237Z,2.03
2023-04-14T20:17:32.856Z,2.13
2023-04-14T20:22:34.476Z,1.90
2023-04-14T20:27:36.191Z,2.03
2023-04-14T20:32:37.926Z,1.73
2023-04-14T20:37:39.576Z,1.45
2023-04-14T20:42:41.135Z,1.63
2023-04-14T20:47:42.985Z,2.03
2023-04-14T20:52:45.152Z,1.60
2023-04-14T20:57:47.514Z,2.65
2023-04-14T21:02:49.259Z,2.20
2023-04-14T21:07:50.858Z,2.10
2023-04-14T21:15:30.387Z,1.95
2023-04-14T21:18:13.906Z,2.10
2023-04-14T21:23:15.577Z,1.65
2023-04-14T21:28:17.253Z,1.90
2023-04-14T21:33:18.809Z,1.95
2023-04-14T21:38:20.444Z,2.28
2023-04-14T21:43:22.073Z,1.92
2023-04-14T21:48:23.735Z,1.90
2023-04-14T21:53:25.290Z,2.35
2023-04-14T21:58:26.932Z,2.40
2023-04-14T22:03:28.770Z,2.50
2023-04-14T22:08:30.354Z,1.98
2023-04-14T22:13:31.858Z,1.92
2023-04-14T22:18:33.456Z,1.98
2023-04-14T22:23:35.069Z,3.40
2023-04-14T22:28:37.154Z,2.03
2023-04-14T22:33:39.081Z,2.28
2023-04-14T22:38:40.642Z,2.20
2023-04-14T22:43:42.577Z,2.13
2023-04-14T22:48:44.476Z,2.38
2023-04-14T22:53:46.086Z,3.95
2023-04-14T22:58:47.611Z,3.13
2023-04-14T23:03:49.278Z,2.00
2023-04-14T23:08:51.521Z,2.30
2023-04-14T23:13:53.034Z,2.38
2023-04-14T23:18:54.570Z,4.53
2023-04-14T23:23:56.097Z,4.60
2023-04-14T23:28:57.618Z,3.38
2023-04-14T23:33:59.168Z,3.22
2023-04-14T23:39:01.019Z,3.25
2023-04-14T23:44:02.687Z,3.75
2023-04-14T23:49:24.149Z,3.35
2023-04-14T23:54:25.839Z,3.67
2023-04-14T23:59:27.378Z,3.47
